Time;durP1;ratioP1;P1;durP2;ratioP2;P2;SDS_P1;SDS_P2;PMS_P1;PMS_P2;Temp;Humidity;BMP_temperature;BMP_pressure;BME280_temperature;BME280_humidity;BME280_pressure;Samples;Min_cycle;Max_cycle;Signal;HPM_P1;HPM_P2
2021/04/17 00:00:31;;;;;;;15.15;4.32;;;4.50;99.90;;;;;;2085667;28;20438;-61
2021/04/17 00:01:33;;;;;;;12.73;5.07;;;4.50;99.90;;;;;;2086089;28;20045;-62
2021/04/17 00:02:34;;;;;;;12.65;5.03;;;4.40;99.90;;;;;;2086930;28;20067;-61
2021/04/17 00:03:35;;;;;;;14.10;4.95;;;4.40;99.90;;;;;;2086894;28;20162;-61
2021/04/17 00:04:38;;;;;;;13.25;4.68;;;4.40;99.90;;;;;;2084210;28;20025;-62
2021/04/17 00:05:39;;;;;;;11.63;4.35;;;4.40;99.90;;;;;;2078566;28;20102;-61
2021/04/17 00:06:40;;;;;;;19.73;4.63;;;4.30;99.90;;;;;;2080630;28;20101;-61
2021/04/17 00:07:41;;;;;;;14.48;4.75;;;4.30;99.90;;;;;;2079731;28;20093;-61
2021/04/17 00:08:42;;;;;;;21.60;5.00;;;4.30;99.90;;;;;;2083036;28;20071;-61
2021/04/17 00:09:43;;;;;;;14.90;5.20;;;4.30;99.90;;;;;;2085625;28;20501;-62
2021/04/17 00:10:44;;;;;;;17.17;4.82;;;4.30;99.90;;;;;;2085884;28;20021;-61
2021/04/17 00:11:46;;;;;;;18.58;5.03;;;4.30;99.90;;;;;;2086882;28;20021;-61
2021/04/17 00:12:47;;;;;;;17.50;4.68;;;4.40;99.90;;;;;;2080135;28;20021;-61
2021/04/17 00:13:48;;;;;;;17.70;5.07;;;4.40;99.90;;;;;;2076268;28;20013;-61
2021/04/17 00:14:50;;;;;;;18.38;4.90;;;4.40;99.90;;;;;;2073601;28;20025;-61
2021/04/17 00:15:51;;;;;;;;;;;4.40;99.90;;;;;;2081081;28;20033;-61
2021/04/17 00:16:51;;;;;;;15.38;5.50;;;4.40;99.90;;;;;;2081093;28;20080;-61
2021/04/17 00:17:52;;;;;;;17.70;4.75;;;4.40;99.90;;;;;;2080724;28;20486;-62
2021/04/17 00:18:53;;;;;;;15.13;4.72;;;4.40;99.90;;;;;;2080564;28;20239;-61
2021/04/17 00:19:54;;;;;;;14.93;4.57;;;4.40;99.90;;;;;;2076123;28;20034;-61
2021/04/17 00:20:55;;;;;;;9.00;4.43;;;4.40;99.90;;;;;;2076191;28;20021;-61
2021/04/17 00:21:56;;;;;;;12.88;4.30;;;4.40;99.90;;;;;;2074940;28;20106;-61
2021/04/17 00:22:57;;;;;;;12.50;4.72;;;4.40;99.90;;;;;;2081571;28;20435;-62
2021/04/17 00:23:58;;;;;;;15.52;5.03;;;4.40;99.90;;;;;;2081425;28;20033;-61
2021/04/17 00:24:58;;;;;;;11.27;4.13;;;4.40;99.90;;;;;;2089792;28;20100;-61
2021/04/17 00:25:59;;;;;;;18.83;4.55;;;4.40;99.90;;;;;;2089440;28;20777;-61
2021/04/17 00:27:02;;;;;;;15.63;4.85;;;4.40;99.90;;;;;;2084779;28;20040;-61
2021/04/17 00:28:03;;;;;;;15.38;5.22;;;4.40;99.90;;;;;;2087516;28;20021;-61
2021/04/17 00:29:05;;;;;;;17.05;4.93;;;4.40;99.90;;;;;;2078641;28;20069;-61
2021/04/17 00:30:07;;;;;;;19.67;4.45;;;4.40;99.90;;;;;;2080762;28;20026;-62
2021/04/17 00:31:08;;;;;;;13.73;4.00;;;4.40;99.90;;;;;;2082266;28;20028;-62
2021/04/17 00:32:09;;;;;;;12.77;4.32;;;4.40;99.90;;;;;;2088732;28;20090;-61
2021/04/17 00:33:10;;;;;;;12.90;4.40;;;4.40;99.90;;;;;;2089599;28;20465;-61
2021/04/17 00:34:10;;;;;;;15.75;4.90;;;4.40;99.90;;;;;;2089573;28;20021;-61
2021/04/17 00:35:12;;;;;;;14.15;4.57;;;4.40;99.90;;;;;;2074016;28;20092;-61
2021/04/17 00:36:12;;;;;;;14.85;4.63;;;4.40;99.90;;;;;;2082190;28;20036;-61
2021/04/17 00:37:13;;;;;;;14.35;4.43;;;4.40;99.90;;;;;;2082819;28;20045;-61
2021/04/17 00:38:14;;;;;;;16.55;4.20;;;4.40;99.90;;;;;;2086169;28;20033;-61
2021/04/17 00:39:14;;;;;;;13.13;4.43;;;4.40;99.90;;;;;;2080512;28;20026;-61
2021/04/17 00:40:15;;;;;;;12.05;4.03;;;4.40;99.90;;;;;;2080843;28;20025;-61
2021/04/17 00:41:17;;;;;;;14.70;5.20;;;4.40;99.90;;;;;;2083242;28;20040;-61
2021/04/17 00:42:17;;;;;;;16.95;4.88;;;4.40;99.90;;;;;;2073746;28;20586;-61
2021/04/17 00:43:18;;;;;;;11.27;4.00;;;4.30;99.90;;;;;;2084256;28;20029;-61
2021/04/17 00:44:19;;;;;;;16.85;4.25;;;4.30;99.90;;;;;;2076497;28;20018;-61
2021/04/17 00:45:19;;;;;;;14.75;5.00;;;4.30;99.90;;;;;;2089488;28;20025;-62
2021/04/17 00:46:20;;;;;;;13.95;4.72;;;4.30;99.90;;;;;;2089507;28;20032;-61
2021/04/17 00:47:21;;;;;;;13.25;4.43;;;4.30;99.90;;;;;;2082450;28;20021;-61
2021/04/17 00:48:22;;;;;;;17.45;4.50;;;4.30;99.90;;;;;;2086475;28;20484;-61
2021/04/17 00:49:22;;;;;;;19.67;4.88;;;4.20;99.90;;;;;;2080935;28;20033;-61
2021/04/17 00:50:25;;;;;;;14.63;4.50;;;4.20;99.90;;;;;;2081993;28;20037;-61
2021/04/17 00:51:25;;;;;;;15.90;4.38;;;4.10;99.90;;;;;;2078759;28;20060;-61
2021/04/17 00:52:27;;;;;;;19.10;5.55;;;4.10;99.90;;;;;;2090768;28;20568;-62
2021/04/17 00:53:27;;;;;;;19.42;4.18;;;4.10;99.90;;;;;;2089522;28;20044;-62
2021/04/17 00:54:28;;;;;;;11.90;4.35;;;4.10;99.90;;;;;;2089517;28;20587;-62
2021/04/17 00:55:29;;;;;;;11.35;5.10;;;4.10;99.90;;;;;;2085986;28;20037;-62
2021/04/17 00:56:29;;;;;;;10.90;4.30;;;4.00;99.90;;;;;;2077957;28;20127;-61
2021/04/17 00:57:30;;;;;;;14.27;4.63;;;4.00;99.90;;;;;;2076575;28;20034;-62
2021/04/17 00:58:31;;;;;;;14.45;4.18;;;4.00;99.90;;;;;;2074668;28;20014;-62
2021/04/17 00:59:32;;;;;;;13.98;4.95;;;4.00;99.90;;;;;;2073305;28;20470;-62
2021/04/17 01:00:36;;;;;;;13.52;4.53;;;3.90;99.90;;;;;;2088199;28;20104;-62
2021/04/17 01:01:38;;;;;;;16.42;4.65;;;4.00;99.90;;;;;;2078213;28;20042;-62
2021/04/17 01:02:55;;;;;;;11.65;4.53;;;4.00;99.90;;;;;;2080620;28;20057;-62
2021/04/17 01:03:58;;;;;;;15.05;4.95;;;3.90;99.90;;;;;;2086172;28;20630;-61
2021/04/17 01:05:01;;;;;;;15.77;4.78;;;3.90;99.90;;;;;;2082812;28;20469;-62
2021/04/17 01:06:22;;;;;;;11.45;4.65;;;3.90;99.90;;;;;;2089233;28;20048;-62
2021/04/17 01:07:27;;;;;;;19.63;5.93;;;3.90;99.90;;;;;;2074816;28;20383;-61
2021/04/17 01:08:54;;;;;;;16.65;4.82;;;3.90;99.90;;;;;;2070077;28;20065;-63
2021/04/17 01:10:01;;;;;;;20.50;5.10;;;3.90;99.90;;;;;;2063572;28;20041;-62
2021/04/17 01:11:07;;;;;;;16.63;5.40;;;4.00;99.90;;;;;;2068786;28;20026;-61
2021/04/17 01:12:14;;;;;;;16.08;4.82;;;3.90;99.90;;;;;;2075414;28;20028;-62
2021/04/17 01:13:15;;;;;;;11.38;4.88;;;4.00;99.90;;;;;;2081249;28;20504;-61
2021/04/17 01:14:17;;;;;;;25.58;4.90;;;4.00;99.90;;;;;;2075173;28;20029;-61
2021/04/17 01:15:18;;;;;;;14.40;4.45;;;4.00;99.90;;;;;;2066194;28;20017;-61
2021/04/17 01:16:20;;;;;;;15.98;4.70;;;4.00;99.90;;;;;;2070409;28;20030;-61
2021/04/17 01:17:21;;;;;;;12.63;4.75;;;4.00;99.90;;;;;;2072122;28;20037;-61
2021/04/17 01:18:24;;;;;;;13.68;5.10;;;4.10;99.90;;;;;;2071766;28;20030;-62
2021/04/17 01:19:38;;;;;;;12.20;4.75;;;4.10;99.90;;;;;;2072955;28;20041;-61
2021/04/17 01:20:50;;;;;;;12.00;4.53;;;4.10;99.90;;;;;;2072706;28;20033;-61
2021/04/17 01:21:51;;;;;;;14.73;4.75;;;4.10;99.90;;;;;;2072343;28;20030;-61
2021/04/17 01:23:29;;;;;;;13.23;4.78;;;4.10;99.90;;;;;;2072817;28;20092;-62
2021/04/17 01:24:32;;;;;;;17.75;4.80;;;4.10;99.90;;;;;;2070777;28;20018;-62
2021/04/17 01:25:59;;;;;;;16.63;5.20;;;4.20;99.90;;;;;;2071835;28;20522;-62
2021/04/17 01:27:00;;;;;;;13.25;4.65;;;4.20;99.90;;;;;;2068136;28;20787;-62
2021/04/17 01:28:01;;;;;;;15.25;4.72;;;4.20;99.90;;;;;;2078209;28;20112;-62
2021/04/17 01:29:02;;;;;;;13.13;5.32;;;4.20;99.90;;;;;;2081202;28;20021;-62
2021/04/17 01:30:12;;;;;;;18.20;5.93;;;4.20;99.90;;;;;;2078506;28;20032;-62
2021/04/17 01:31:16;;;;;;;15.07;5.28;;;4.20;99.90;;;;;;2072812;28;20033;-61
2021/04/17 01:32:17;;;;;;;24.77;5.90;;;4.20;99.90;;;;;;2071934;28;20030;-61
2021/04/17 01:33:22;;;;;;;15.88;5.28;;;4.20;99.90;;;;;;2066389;28;20027;-62
2021/04/17 01:34:23;;;;;;;16.33;5.00;;;4.20;99.90;;;;;;2072283;28;20030;-62
2021/04/17 01:35:24;;;;;;;20.02;5.18;;;4.10;99.90;;;;;;2069663;28;20033;-63
2021/04/17 01:36:26;;;;;;;12.02;5.28;;;4.10;99.90;;;;;;2074485;28;20033;-62
2021/04/17 01:37:50;;;;;;;;;;;4.10;99.90;;;;;;2070129;28;20018;-62
2021/04/17 01:38:54;;;;;;;14.75;5.43;;;4.10;99.90;;;;;;2071797;28;19996;-62
2021/04/17 01:39:55;;;;;;;15.60;5.65;;;4.10;99.90;;;;;;2077552;28;20536;-62
2021/04/17 01:41:03;;;;;;;12.25;5.78;;;4.10;99.90;;;;;;2073229;28;20076;-62
2021/04/17 01:42:06;;;;;;;21.85;6.28;;;4.20;99.90;;;;;;2080966;28;20028;-62
2021/04/17 01:43:07;;;;;;;21.73;6.13;;;4.20;99.90;;;;;;2080689;28;20052;-62
2021/04/17 01:44:17;;;;;;;14.93;5.68;;;4.20;99.90;;;;;;2080930;28;20040;-62
2021/04/17 01:45:22;;;;;;;17.65;6.55;;;4.20;99.90;;;;;;2070232;28;20036;-62
2021/04/17 01:46:25;;;;;;;13.63;5.85;;;4.20;99.90;;;;;;2070475;28;20022;-61
2021/04/17 01:47:26;;;;;;;15.43;5.93;;;4.20;99.90;;;;;;2073781;28;20095;-61
2021/04/17 01:48:29;;;;;;;20.13;5.97;;;4.20;99.90;;;;;;2078734;28;20022;-62
2021/04/17 01:49:32;;;;;;;15.30;6.93;;;4.20;99.90;;;;;;2072839;28;20060;-61
2021/04/17 01:50:34;;;;;;;14.93;5.72;;;4.30;99.90;;;;;;2080952;28;20024;-62
2021/04/17 01:51:37;;;;;;;18.85;6.38;;;4.40;99.90;;;;;;2080846;28;20021;-62
2021/04/17 01:52:40;;;;;;;18.58;5.63;;;4.40;99.90;;;;;;2080164;28;20026;-62
2021/04/17 01:53:43;;;;;;;16.75;5.90;;;4.40;99.90;;;;;;2080250;28;20063;-62
2021/04/17 01:54:50;;;;;;;19.42;5.78;;;4.40;99.90;;;;;;2077266;28;20028;-61
2021/04/17 01:55:52;;;;;;;15.23;5.68;;;4.30;99.90;;;;;;2070718;28;20490;-61
2021/04/17 01:56:56;;;;;;;;;;;4.30;99.90;;;;;;2073432;28;20116;-62
2021/04/17 01:57:59;;;;;;;13.57;5.60;;;4.30;99.90;;;;;;2064756;28;19956;-62
2021/04/17 01:59:02;;;;;;;13.45;5.45;;;4.30;99.90;;;;;;2074302;28;20597;-62
2021/04/17 02:00:08;;;;;;;21.73;5.80;;;4.20;99.90;;;;;;2072816;28;20033;-61
2021/04/17 02:01:09;;;;;;;14.60;6.57;;;4.20;99.90;;;;;;2072223;28;20057;-62
2021/04/17 02:02:09;;;;;;;17.48;6.43;;;4.20;99.90;;;;;;2079241;28;20093;-62
2021/04/17 02:03:10;;;;;;;18.67;6.43;;;4.10;99.90;;;;;;2080859;28;20049;-62
2021/04/17 02:04:11;;;;;;;16.20;7.10;;;4.10;99.90;;;;;;2064643;28;20386;-62
2021/04/17 02:05:12;;;;;;;16.38;6.20;;;4.10;99.90;;;;;;2071858;28;20025;-62
2021/04/17 02:06:14;;;;;;;10.68;6.65;;;4.20;99.90;;;;;;2065504;28;20206;-61
2021/04/17 02:07:14;;;;;;;17.60;7.50;;;4.20;99.90;;;;;;2077839;28;20041;-62
2021/04/17 02:08:16;;;;;;;18.75;6.65;;;4.20;99.90;;;;;;2080691;28;20172;-61
2021/04/17 02:09:17;;;;;;;19.40;6.95;;;4.20;99.90;;;;;;2080933;28;20075;-62
2021/04/17 02:10:18;;;;;;;21.30;6.85;;;4.30;99.90;;;;;;2080335;28;20026;-61
2021/04/17 02:11:18;;;;;;;16.02;6.70;;;4.30;99.90;;;;;;2079188;28;20169;-62
2021/04/17 02:12:19;;;;;;;16.20;7.32;;;4.20;99.90;;;;;;2065363;28;20567;-62
2021/04/17 02:13:20;;;;;;;20.17;6.53;;;4.20;99.90;;;;;;2066057;28;20030;-62
2021/04/17 02:14:21;;;;;;;19.63;7.20;;;4.20;99.90;;;;;;2072587;28;20033;-62
2021/04/17 02:15:22;;;;;;;18.83;7.28;;;4.20;99.90;;;;;;2075231;28;20051;-62
2021/04/17 02:16:31;;;;;;;17.08;7.28;;;4.20;99.90;;;;;;2080070;28;20624;-62
2021/04/17 02:17:44;;;;;;;19.33;6.95;;;4.10;99.90;;;;;;2074995;28;20029;-62
2021/04/17 02:18:48;;;;;;;13.55;6.90;;;4.10;99.90;;;;;;2075047;28;20113;-62
2021/04/17 02:20:05;;;;;;;21.25;8.13;;;4.20;99.90;;;;;;2076329;28;20083;-62
2021/04/17 02:21:10;;;;;;;23.80;7.90;;;4.20;99.90;;;;;;2063772;28;20022;-62
2021/04/17 02:22:11;;;;;;;21.30;7.90;;;4.20;99.90;;;;;;2071066;28;20022;-61
2021/04/17 02:23:12;;;;;;;25.85;8.90;;;4.30;99.90;;;;;;2067530;28;20075;-62
2021/04/17 02:24:14;;;;;;;18.67;7.97;;;4.40;99.90;;;;;;2075227;28;20026;-61
2021/04/17 02:25:15;;;;;;;18.77;8.38;;;4.50;99.90;;;;;;2072488;28;20518;-61
2021/04/17 02:26:16;;;;;;;20.52;8.95;;;4.60;99.90;;;;;;2077505;28;20064;-62
2021/04/17 02:27:17;;;;;;;18.40;7.82;;;4.60;99.90;;;;;;2066246;28;20029;-61
2021/04/17 02:28:18;;;;;;;13.68;7.55;;;4.70;99.90;;;;;;2066897;28;20430;-62
2021/04/17 02:29:20;;;;;;;18.55;8.15;;;4.70;99.90;;;;;;2070226;28;20023;-62
2021/04/17 02:30:21;;;;;;;23.50;7.80;;;4.80;99.90;;;;;;2080793;28;20025;-62
2021/04/17 02:31:24;;;;;;;20.75;8.18;;;4.80;99.90;;;;;;2080451;28;20072;-61
2021/04/17 02:32:25;;;;;;;17.35;8.20;;;4.90;99.90;;;;;;2075091;28;20030;-61
2021/04/17 02:33:26;;;;;;;17.95;7.57;;;4.90;99.90;;;;;;2080775;28;20382;-62
2021/04/17 02:34:28;;;;;;;17.42;7.90;;;4.90;99.90;;;;;;2080517;28;20043;-61
2021/04/17 02:35:28;;;;;;;19.10;8.00;;;4.90;99.90;;;;;;2080475;28;20021;-62
2021/04/17 02:36:29;;;;;;;16.08;7.55;;;4.90;99.90;;;;;;2071459;28;20486;-62
2021/04/17 02:37:30;;;;;;;19.92;8.27;;;4.90;99.90;;;;;;2066984;28;20034;-62
2021/04/17 02:38:30;;;;;;;18.58;8.23;;;4.90;99.90;;;;;;2073869;28;20026;-61
2021/04/17 02:39:31;;;;;;;19.80;7.80;;;4.90;99.90;;;;;;2069250;28;20025;-62
2021/04/17 02:40:32;;;;;;;15.52;8.48;;;4.90;99.90;;;;;;2080843;28;20022;-62
2021/04/17 02:41:33;;;;;;;14.70;7.78;;;4.90;99.90;;;;;;2078134;28;20079;-62
2021/04/17 02:42:33;;;;;;;17.08;8.23;;;4.90;99.90;;;;;;2064581;28;20022;-61
2021/04/17 02:43:34;;;;;;;20.45;8.63;;;5.00;99.90;;;;;;2079874;28;20405;-62
2021/04/17 02:44:35;;;;;;;23.23;9.25;;;5.00;99.90;;;;;;2068428;28;20026;-62
2021/04/17 02:45:36;;;;;;;20.67;8.43;;;5.00;99.90;;;;;;2080636;28;20120;-62
2021/04/17 02:46:37;;;;;;;19.08;8.80;;;5.00;99.90;;;;;;2068180;28;20285;-62
2021/04/17 02:47:37;;;;;;;16.63;8.18;;;5.00;99.90;;;;;;2067464;28;20029;-62
2021/04/17 02:48:39;;;;;;;17.58;8.52;;;5.00;99.90;;;;;;2069142;28;20069;-62
2021/04/17 02:49:40;;;;;;;;;;;5.00;99.90;;;;;;2068759;28;20026;-62
2021/04/17 02:50:41;;;;;;;21.13;8.77;;;5.00;99.90;;;;;;2080339;28;20292;-62
2021/04/17 02:51:42;;;;;;;20.48;8.60;;;5.00;99.90;;;;;;2080359;28;20024;-62
2021/04/17 02:52:42;;;;;;;21.70;8.68;;;5.00;99.90;;;;;;2074574;28;20026;-62
2021/04/17 02:53:43;;;;;;;19.52;8.15;;;5.00;99.90;;;;;;2079492;28;20532;-62
2021/04/17 02:54:44;;;;;;;25.17;10.55;;;5.00;99.90;;;;;;2080324;28;20014;-62
2021/04/17 02:55:44;;;;;;;18.52;8.07;;;5.00;99.90;;;;;;2074383;28;20018;-62
2021/04/17 02:56:45;;;;;;;19.23;8.27;;;5.00;99.90;;;;;;2065405;28;20102;-62
2021/04/17 02:57:46;;;;;;;21.08;8.18;;;5.00;99.90;;;;;;2064331;28;20528;-62
2021/04/17 02:58:47;;;;;;;20.98;8.70;;;5.00;99.90;;;;;;2078365;28;20024;-62
2021/04/17 02:59:48;;;;;;;20.08;8.30;;;5.00;99.90;;;;;;2079385;28;20022;-62
2021/04/17 03:00:49;;;;;;;22.05;8.52;;;5.00;99.90;;;;;;2071294;28;20026;-62
2021/04/17 03:01:49;;;;;;;28.60;9.20;;;5.00;99.90;;;;;;2074733;28;20018;-61
2021/04/17 03:02:51;;;;;;;25.27;8.65;;;5.00;99.90;;;;;;2067853;28;20053;-62
2021/04/17 03:03:52;;;;;;;17.58;8.75;;;5.00;99.90;;;;;;2076057;28;20014;-62
2021/04/17 03:04:52;;;;;;;16.08;9.43;;;5.00;99.90;;;;;;2073550;28;20025;-62
2021/04/17 03:05:53;;;;;;;20.77;8.10;;;5.00;99.90;;;;;;2080405;28;20021;-62
2021/04/17 03:06:54;;;;;;;20.33;8.45;;;5.00;99.90;;;;;;2075970;28;20038;-62
2021/04/17 03:07:55;;;;;;;25.15;8.77;;;4.90;99.90;;;;;;2080583;28;20022;-62
2021/04/17 03:08:55;;;;;;;17.92;8.90;;;4.90;99.90;;;;;;2073256;28;20034;-62
2021/04/17 03:09:56;;;;;;;16.27;8.68;;;4.90;99.90;;;;;;2072289;28;20028;-62
2021/04/17 03:10:57;;;;;;;20.77;8.95;;;4.90;99.90;;;;;;2077470;28;20112;-62
2021/04/17 03:11:57;;;;;;;20.63;8.77;;;4.90;99.90;;;;;;2072136;28;20014;-62
2021/04/17 03:12:58;;;;;;;22.00;8.73;;;4.90;99.90;;;;;;2080618;28;20017;-62
2021/04/17 03:13:59;;;;;;;14.52;7.97;;;4.90;99.90;;;;;;2080476;28;20021;-62
2021/04/17 03:15:00;;;;;;;21.48;8.75;;;4.90;99.90;;;;;;2079499;28;20026;-62
2021/04/17 03:16:01;;;;;;;25.58;8.93;;;4.90;99.90;;;;;;2079016;28;20097;-62
2021/04/17 03:17:02;;;;;;;18.10;8.32;;;4.90;99.90;;;;;;2065608;28;20117;-62
2021/04/17 03:18:03;;;;;;;23.55;9.13;;;4.90;99.90;;;;;;2064130;28;20029;-62
2021/04/17 03:19:04;;;;;;;18.70;8.68;;;4.80;99.90;;;;;;2076127;28;20052;-62
2021/04/17 03:20:07;;;;;;;22.35;8.43;;;4.80;99.90;;;;;;2080546;28;20029;-62
2021/04/17 03:21:07;;;;;;;23.52;8.95;;;4.70;99.90;;;;;;2079530;28;20026;-62
2021/04/17 03:22:08;;;;;;;18.80;8.10;;;4.70;99.90;;;;;;2076057;28;20021;-62
2021/04/17 03:23:09;;;;;;;21.77;9.15;;;4.60;99.90;;;;;;2071552;28;20046;-62
2021/04/17 03:24:10;;;;;;;20.40;8.65;;;4.60;99.90;;;;;;2076994;28;20026;-62
2021/04/17 03:25:12;;;;;;;19.70;9.02;;;4.60;99.90;;;;;;2070608;28;20026;-61
2021/04/17 03:26:12;;;;;;;23.33;8.65;;;4.60;99.90;;;;;;2076861;28;20029;-62
2021/04/17 03:27:13;;;;;;;21.50;9.18;;;4.60;99.90;;;;;;2080501;28;20036;-61
2021/04/17 03:28:14;;;;;;;17.35;8.65;;;4.60;99.90;;;;;;2079634;28;20029;-61
2021/04/17 03:29:14;;;;;;;19.00;9.15;;;4.60;99.90;;;;;;2071794;28;20033;-61
2021/04/17 03:30:18;;;;;;;17.15;8.73;;;4.50;99.90;;;;;;2067481;28;20037;-61
2021/04/17 03:31:19;;;;;;;18.80;8.60;;;4.50;99.90;;;;;;2071606;28;20022;-62
2021/04/17 03:32:20;;;;;;;22.65;8.88;;;4.50;99.90;;;;;;2063533;28;20125;-62
2021/04/17 03:33:21;;;;;;;17.23;9.32;;;4.50;99.90;;;;;;2073090;28;20033;-62
2021/04/17 03:34:21;;;;;;;28.80;9.43;;;4.50;99.90;;;;;;2073613;28;20034;-61
2021/04/17 03:35:22;;;;;;;25.40;9.18;;;4.40;99.90;;;;;;2080416;28;20180;-62
2021/04/17 03:36:23;;;;;;;19.48;10.02;;;4.40;99.90;;;;;;2080397;28;20022;-62
2021/04/17 03:37:24;;;;;;;23.23;9.20;;;4.50;99.90;;;;;;2079667;28;20501;-62
2021/04/17 03:38:24;;;;;;;23.65;9.40;;;4.40;99.90;;;;;;2069514;28;20377;-62
2021/04/17 03:39:25;;;;;;;25.85;10.10;;;4.40;99.90;;;;;;2067312;28;20514;-62
2021/04/17 03:40:27;;;;;;;25.88;9.88;;;4.40;99.90;;;;;;2067398;28;20038;-62
2021/04/17 03:41:27;;;;;;;27.90;9.38;;;4.40;99.90;;;;;;2075964;28;20052;-62
2021/04/17 03:42:28;;;;;;;19.73;9.18;;;4.40;99.90;;;;;;2080499;28;20234;-62
2021/04/17 03:43:29;;;;;;;23.58;9.60;;;4.30;99.90;;;;;;2080335;28;20022;-61
2021/04/17 03:44:29;;;;;;;26.77;10.60;;;4.30;99.90;;;;;;2080443;28;20076;-61
2021/04/17 03:45:31;;;;;;;22.77;9.60;;;4.30;99.90;;;;;;2079181;28;20592;-61
2021/04/17 03:46:32;;;;;;;26.02;9.25;;;4.30;99.90;;;;;;2063959;28;20050;-62
2021/04/17 03:47:34;;;;;;;26.13;9.88;;;4.30;99.90;;;;;;2063882;28;20691;-62
2021/04/17 03:48:34;;;;;;;25.02;9.77;;;4.30;99.90;;;;;;2079388;28;20417;-62
2021/04/17 03:49:35;;;;;;;38.03;11.02;;;4.30;99.90;;;;;;2081737;28;20028;-61
2021/04/17 03:50:37;;;;;;;23.65;9.07;;;4.30;99.90;;;;;;2079081;28;20512;-61
2021/04/17 03:51:38;;;;;;;24.17;10.80;;;4.30;99.90;;;;;;2073092;28;20017;-62
2021/04/17 03:52:39;;;;;;;24.60;9.13;;;4.30;99.90;;;;;;2073790;28;20053;-62
2021/04/17 03:53:39;;;;;;;18.65;8.90;;;4.30;99.90;;;;;;2070600;28;20025;-62
2021/04/17 03:54:40;;;;;;;20.73;9.98;;;4.30;99.90;;;;;;2074267;28;20086;-61
2021/04/17 03:55:41;;;;;;;21.48;9.63;;;4.30;99.90;;;;;;2077143;28;20034;-62
2021/04/17 03:56:42;;;;;;;19.42;10.05;;;4.30;99.90;;;;;;2081087;28;20021;-62
2021/04/17 03:57:44;;;;;;;18.05;9.32;;;4.30;99.90;;;;;;2073845;28;20026;-62
2021/04/17 03:58:44;;;;;;;24.27;9.85;;;4.30;99.90;;;;;;2079628;28;20025;-62
2021/04/17 03:59:46;;;;;;;18.40;9.43;;;4.30;99.90;;;;;;2074287;28;20417;-62
2021/04/17 04:00:47;;;;;;;21.33;9.70;;;4.30;99.90;;;;;;2081321;28;20117;-62
2021/04/17 04:01:48;;;;;;;21.83;10.50;;;4.30;99.90;;;;;;2081826;28;20060;-62
2021/04/17 04:02:49;;;;;;;23.20;9.52;;;4.30;99.90;;;;;;2078945;28;20025;-61
2021/04/17 04:03:50;;;;;;;23.77;10.10;;;4.30;99.90;;;;;;2068885;28;20500;-62
2021/04/17 04:04:50;;;;;;;22.88;9.40;;;4.30;99.90;;;;;;2067064;28;20038;-61
2021/04/17 04:05:51;;;;;;;20.40;9.32;;;4.40;99.90;;;;;;2069927;28;20489;-62
2021/04/17 04:06:52;;;;;;;22.92;9.18;;;4.30;99.90;;;;;;2077159;28;20660;-62
2021/04/17 04:07:52;;;;;;;21.70;9.32;;;4.30;99.90;;;;;;2081251;28;20029;-62
2021/04/17 04:08:53;;;;;;;29.80;10.13;;;4.30;99.90;;;;;;2081021;28;20203;-61
2021/04/17 04:09:54;;;;;;;23.83;9.68;;;4.30;99.90;;;;;;2073654;28;20034;-62
2021/04/17 04:10:55;;;;;;;20.58;9.50;;;4.30;99.90;;;;;;2081663;28;20021;-62
2021/04/17 04:11:55;;;;;;;21.27;8.77;;;4.30;99.90;;;;;;2080391;28;20500;-62
2021/04/17 04:12:56;;;;;;;24.63;10.18;;;4.30;99.90;;;;;;2075406;28;20156;-62
2021/04/17 04:13:57;;;;;;;24.02;9.68;;;4.30;99.90;;;;;;2072403;28;20014;-62
2021/04/17 04:14:58;;;;;;;23.45;9.57;;;4.30;99.90;;;;;;2073009;28;20029;-62
2021/04/17 04:15:58;;;;;;;23.20;9.20;;;4.30;99.90;;;;;;2073161;28;20128;-62
2021/04/17 04:17:00;;;;;;;23.83;9.48;;;4.30;99.90;;;;;;2072459;28;20084;-62
2021/04/17 04:18:00;;;;;;;34.33;11.65;;;4.20;99.90;;;;;;2072609;28;20036;-62
2021/04/17 04:19:01;;;;;;;20.92;9.90;;;4.20;99.90;;;;;;2072975;28;20032;-62
2021/04/17 04:20:04;;;;;;;21.55;9.45;;;4.20;99.90;;;;;;2067229;28;20544;-62
2021/04/17 04:21:05;;;;;;;25.58;9.52;;;4.20;99.90;;;;;;2069985;28;20041;-62
2021/04/17 04:22:07;;;;;;;25.98;9.82;;;4.20;99.90;;;;;;2075049;28;20507;-62
2021/04/17 04:23:07;;;;;;;20.90;9.10;;;4.30;99.90;;;;;;2074706;28;20029;-62
2021/04/17 04:24:09;;;;;;;29.23;9.05;;;4.20;99.90;;;;;;2073627;28;20478;-62
2021/04/17 04:25:10;;;;;;;29.50;10.63;;;4.30;99.90;;;;;;2072461;28;20080;-62
2021/04/17 04:26:11;;;;;;;20.38;9.30;;;4.20;99.90;;;;;;2077101;28;20466;-62
2021/04/17 04:27:11;;;;;;;19.08;9.00;;;4.30;99.90;;;;;;2080830;28;20033;-62
2021/04/17 04:28:12;;;;;;;20.85;9.75;;;4.30;99.90;;;;;;2080768;28;20021;-61
2021/04/17 04:29:13;;;;;;;21.98;9.65;;;4.30;99.90;;;;;;2077527;28;20148;-61
2021/04/17 04:30:14;;;;;;;27.88;9.27;;;4.30;99.90;;;;;;2065239;28;20031;-62
2021/04/17 04:31:14;;;;;;;28.13;9.25;;;4.30;99.90;;;;;;2069715;28;20025;-62
2021/04/17 04:32:15;;;;;;;25.40;10.45;;;4.30;99.90;;;;;;2065208;28;20064;-62
2021/04/17 04:33:16;;;;;;;27.75;9.75;;;4.30;99.90;;;;;;2074682;28;20108;-62
2021/04/17 04:34:17;;;;;;;32.25;9.77;;;4.30;99.90;;;;;;2073752;28;20476;-62
2021/04/17 04:35:18;;;;;;;24.30;9.27;;;4.30;99.90;;;;;;2068555;28;20072;-62
2021/04/17 04:36:18;;;;;;;23.88;9.40;;;4.30;99.90;;;;;;2076628;28;20022;-62
2021/04/17 04:37:19;;;;;;;23.02;10.13;;;4.20;99.90;;;;;;2074385;28;20036;-61
2021/04/17 04:38:20;;;;;;;22.67;9.00;;;4.20;99.90;;;;;;2073278;28;20080;-63
2021/04/17 04:39:21;;;;;;;23.85;8.35;;;4.30;99.90;;;;;;2068792;28;20029;-62
2021/04/17 04:40:22;;;;;;;24.50;10.15;;;4.30;99.90;;;;;;2080613;28;20705;-62
2021/04/17 04:41:22;;;;;;;22.88;9.50;;;4.40;99.90;;;;;;2080744;28;20525;-62
2021/04/17 04:42:23;;;;;;;28.50;9.00;;;4.30;99.90;;;;;;2080998;28;20037;-62
2021/04/17 04:43:24;;;;;;;23.15;10.07;;;4.40;99.90;;;;;;2080724;28;20720;-62
2021/04/17 04:44:25;;;;;;;20.60;8.68;;;4.40;99.90;;;;;;2080760;28;20083;-62
2021/04/17 04:45:26;;;;;;;30.30;9.32;;;4.40;99.90;;;;;;2077364;28;20109;-62
2021/04/17 04:46:27;;;;;;;20.20;8.98;;;4.40;99.90;;;;;;2069603;28;20026;-62
2021/04/17 04:47:28;;;;;;;25.58;9.55;;;4.40;99.90;;;;;;2064912;28;20524;-62
2021/04/17 04:48:28;;;;;;;23.05;9.20;;;4.40;99.90;;;;;;2078473;28;20026;-62
2021/04/17 04:49:29;;;;;;;32.45;9.20;;;4.40;99.90;;;;;;2080811;28;20017;-62
2021/04/17 04:50:30;;;;;;;30.65;9.07;;;4.40;99.90;;;;;;2080610;28;20022;-62
2021/04/17 04:51:30;;;;;;;24.55;8.85;;;4.40;99.90;;;;;;2073035;28;20058;-63
2021/04/17 04:52:31;;;;;;;26.45;9.98;;;4.40;99.90;;;;;;2065058;28;20628;-62
2021/04/17 04:53:32;;;;;;;27.83;10.20;;;4.40;99.90;;;;;;2076137;28;20567;-62
2021/04/17 04:54:32;;;;;;;23.52;8.50;;;4.40;99.90;;;;;;2072175;28;20064;-62
2021/04/17 04:55:34;;;;;;;23.98;9.45;;;4.40;99.90;;;;;;2081100;28;20025;-62
2021/04/17 04:56:34;;;;;;;20.02;9.38;;;4.40;99.90;;;;;;2078291;28;20621;-62
2021/04/17 04:57:35;;;;;;;26.42;9.55;;;4.40;99.90;;;;;;2072817;28;20112;-62
2021/04/17 04:58:36;;;;;;;23.55;8.85;;;4.40;99.90;;;;;;2071026;28;20037;-62
2021/04/17 04:59:37;;;;;;;23.98;9.32;;;4.40;99.90;;;;;;2064974;28;20027;-62
2021/04/17 05:00:37;;;;;;;29.00;9.32;;;4.40;99.90;;;;;;2071657;28;20076;-62
2021/04/17 05:01:38;;;;;;;28.15;9.38;;;4.40;99.90;;;;;;2072068;28;20153;-62
2021/04/17 05:02:39;;;;;;;25.65;9.57;;;4.40;99.90;;;;;;2072075;28;20537;-62
2021/04/17 05:03:39;;;;;;;24.45;9.10;;;4.50;99.90;;;;;;2072437;28;20022;-62
2021/04/17 05:04:40;;;;;;;26.50;10.35;;;4.50;99.90;;;;;;2072550;28;20120;-62
2021/04/17 05:05:41;;;;;;;23.65;9.95;;;4.50;99.90;;;;;;2072241;28;20093;-62
2021/04/17 05:06:41;;;;;;;24.98;9.48;;;4.50;99.90;;;;;;2073105;28;20049;-62
2021/04/17 05:07:42;;;;;;;25.85;10.05;;;4.50;99.90;;;;;;2071102;28;20395;-62
2021/04/17 05:08:43;;;;;;;31.85;10.38;;;4.60;99.90;;;;;;2068122;28;20502;-62
2021/04/17 05:09:44;;;;;;;26.73;9.60;;;4.60;99.90;;;;;;2072354;28;20030;-62
2021/04/17 05:10:44;;;;;;;26.17;9.82;;;4.60;99.90;;;;;;2072438;28;20026;-62
2021/04/17 05:11:45;;;;;;;28.38;10.23;;;4.60;99.90;;;;;;2071194;28;20050;-62
2021/04/17 05:12:46;;;;;;;23.70;9.32;;;4.60;99.90;;;;;;2072234;28;20716;-62
2021/04/17 05:13:46;;;;;;;29.30;9.60;;;4.60;99.90;;;;;;2070851;28;20037;-62
2021/04/17 05:14:47;;;;;;;23.50;9.30;;;4.60;99.90;;;;;;2065464;28;20517;-62
2021/04/17 05:15:48;;;;;;;29.25;9.07;;;4.60;99.90;;;;;;2068518;28;20027;-62
2021/04/17 05:16:48;;;;;;;31.40;9.77;;;4.60;99.90;;;;;;2073084;28;20034;-62
2021/04/17 05:17:49;;;;;;;23.52;9.30;;;4.60;99.90;;;;;;2068660;28;20038;-62
2021/04/17 05:18:50;;;;;;;24.35;9.27;;;4.60;99.90;;;;;;2067591;28;20038;-62
2021/04/17 05:19:52;;;;;;;34.25;9.60;;;4.70;99.90;;;;;;2069120;28;20611;-62
2021/04/17 05:20:53;;;;;;;27.90;9.38;;;4.70;99.90;;;;;;2071459;28;20127;-62
2021/04/17 05:21:54;;;;;;;19.75;9.18;;;4.70;99.90;;;;;;2072148;28;20040;-62
2021/04/17 05:22:54;;;;;;;22.40;9.30;;;4.70;99.90;;;;;;2068661;28;20414;-62